N50X KSLC-KLAS
Flight info
| Callsign | N50X |
|---|---|
| Flight time | 1h 34m |
| Altitude | 24000 |
| Route | FFU9 MLF STEWW CHOWW4 |
| Aircraft | SF50/L-BDGRSWY/LB2U2 |
Departure
| Time | 2026-05-08 07:20 |
|---|---|
| Airport | Salt Lake City International Airport (KSLC) |
Arrival
| Time | 2026-05-08 08:55 |
|---|---|
| Airport | Harry Reid International Airport (KLAS) |
| Time | Latitude | Longitude | Altitude | Speed | Heading |
|---|---|---|---|---|---|
| 2026-05-08 06:57 | 40.77667 | -111.95991 | 4233 ft | 0 kts | 360° |
| 2026-05-08 07:12 | 40.77700 | -111.96016 | 4233 ft | 12 kts | 341° |
| 2026-05-08 07:12 | 40.77769 | -111.95994 | 4231 ft | 0 kts | 15° |
| 2026-05-08 07:12 | 40.77779 | -111.95993 | 4230 ft | 7 kts | 357° |
| 2026-05-08 07:12 | 40.77835 | -111.95999 | 4228 ft | 8 kts | 352° |
| 2026-05-08 07:13 | 40.77899 | -111.96004 | 4227 ft | 11 kts | 359° |
| 2026-05-08 07:13 | 40.77986 | -111.96003 | 4226 ft | 14 kts | 0° |
| 2026-05-08 07:13 | 40.78096 | -111.96002 | 4225 ft | 17 kts | 0° |
| 2026-05-08 07:13 | 40.78186 | -111.96003 | 4223 ft | 4 kts | 359° |
| 2026-05-08 07:14 | 40.78189 | -111.96003 | 4223 ft | 1 kts | 359° |
| 2026-05-08 07:14 | 40.78202 | -111.96004 | 4222 ft | 2 kts | 358° |
| 2026-05-08 07:14 | 40.78227 | -111.96004 | 4222 ft | 2 kts | 1° |
| 2026-05-08 07:14 | 40.78250 | -111.96003 | 4222 ft | 4 kts | 0° |
| 2026-05-08 07:15 | 40.78285 | -111.96003 | 4223 ft | 6 kts | 360° |
| 2026-05-08 07:15 | 40.78334 | -111.96004 | 4226 ft | 8 kts | 0° |
| 2026-05-08 07:15 | 40.78392 | -111.96003 | 4226 ft | 9 kts | 0° |
| 2026-05-08 07:15 | 40.78463 | -111.96003 | 4227 ft | 12 kts | 360° |
| 2026-05-08 07:16 | 40.78550 | -111.96005 | 4227 ft | 8 kts | 348° |
| 2026-05-08 07:16 | 40.78582 | -111.96033 | 4228 ft | 3 kts | 308° |
| 2026-05-08 07:16 | 40.78592 | -111.96048 | 4228 ft | 0 kts | 310° |
| 2026-05-08 07:18 | 40.78597 | -111.96057 | 4228 ft | 6 kts | 311° |
| 2026-05-08 07:18 | 40.78638 | -111.96125 | 4230 ft | 10 kts | 304° |
| 2026-05-08 07:19 | 40.78667 | -111.96192 | 4230 ft | 8 kts | 259° |
| 2026-05-08 07:19 | 40.78604 | -111.96207 | 4230 ft | 25 kts | 179° |
| 2026-05-08 07:19 | 40.78230 | -111.96207 | 4227 ft | 80 kts | 180° |
| 2026-05-08 07:19 | 40.77525 | -111.96209 | 4312 ft | 113 kts | 181° |
| 2026-05-08 07:20 | 40.76684 | -111.96224 | 4577 ft | 127 kts | 181° |
| 2026-05-08 07:20 | 40.75765 | -111.96190 | 4868 ft | 139 kts | 169° |
| 2026-05-08 07:20 | 40.74861 | -111.95644 | 5192 ft | 144 kts | 154° |
| 2026-05-08 07:20 | 40.73918 | -111.95176 | 5598 ft | 143 kts | 167° |
| 2026-05-08 07:21 | 40.72938 | -111.95159 | 5989 ft | 141 kts | 191° |
| 2026-05-08 07:21 | 40.72038 | -111.95589 | 6320 ft | 139 kts | 199° |
| 2026-05-08 07:21 | 40.71088 | -111.95592 | 6597 ft | 142 kts | 156° |
| 2026-05-08 07:21 | 40.70094 | -111.95183 | 6866 ft | 160 kts | 178° |
| 2026-05-08 07:22 | 40.68947 | -111.95196 | 7257 ft | 170 kts | 182° |
| 2026-05-08 07:22 | 40.67734 | -111.95172 | 7706 ft | 177 kts | 180° |
| 2026-05-08 07:22 | 40.66482 | -111.95130 | 8176 ft | 182 kts | 180° |
| 2026-05-08 07:22 | 40.65200 | -111.95096 | 8674 ft | 185 kts | 181° |
| 2026-05-08 07:23 | 40.63902 | -111.95060 | 9184 ft | 187 kts | 181° |
| 2026-05-08 07:23 | 40.62597 | -111.95026 | 9690 ft | 188 kts | 182° |
| 2026-05-08 07:23 | 40.61285 | -111.94990 | 10178 ft | 189 kts | 182° |
| 2026-05-08 07:23 | 40.59970 | -111.94954 | 10635 ft | 189 kts | 183° |
| 2026-05-08 07:24 | 40.58651 | -111.94917 | 11094 ft | 189 kts | 184° |
| 2026-05-08 07:24 | 40.57335 | -111.94879 | 11554 ft | 189 kts | 184° |
| 2026-05-08 07:24 | 40.56021 | -111.94843 | 12023 ft | 188 kts | 185° |
| 2026-05-08 07:24 | 40.54728 | -111.94807 | 12479 ft | 188 kts | 186° |
| 2026-05-08 07:25 | 40.53423 | -111.94769 | 12938 ft | 187 kts | 186° |
| 2026-05-08 07:25 | 40.52121 | -111.94731 | 13383 ft | 187 kts | 187° |
| 2026-05-08 07:25 | 40.49527 | -111.94658 | 14234 ft | 186 kts | 187° |
| 2026-05-08 07:26 | 40.48235 | -111.94621 | 14614 ft | 185 kts | 187° |
| 2026-05-08 07:26 | 40.46943 | -111.94584 | 14995 ft | 185 kts | 187° |
| 2026-05-08 07:26 | 40.45655 | -111.94550 | 15374 ft | 185 kts | 187° |
| 2026-05-08 07:26 | 40.44365 | -111.94513 | 15735 ft | 186 kts | 187° |
| 2026-05-08 07:27 | 40.43074 | -111.94479 | 16104 ft | 185 kts | 187° |
| 2026-05-08 07:27 | 40.41782 | -111.94445 | 16479 ft | 185 kts | 186° |
| 2026-05-08 07:27 | 40.40491 | -111.94411 | 16841 ft | 186 kts | 186° |
| 2026-05-08 07:27 | 40.39196 | -111.94377 | 17196 ft | 186 kts | 186° |
| 2026-05-08 07:28 | 40.37917 | -111.94343 | 17552 ft | 186 kts | 186° |
| 2026-05-08 07:28 | 40.36625 | -111.94308 | 17912 ft | 186 kts | 186° |
| 2026-05-08 07:28 | 40.35326 | -111.94274 | 18269 ft | 186 kts | 185° |
| 2026-05-08 07:28 | 40.34031 | -111.94239 | 18580 ft | 186 kts | 185° |
| 2026-05-08 07:29 | 40.32731 | -111.94203 | 18898 ft | 186 kts | 185° |
| 2026-05-08 07:29 | 40.31431 | -111.94165 | 19198 ft | 186 kts | 185° |
| 2026-05-08 07:29 | 40.30134 | -111.94129 | 19505 ft | 186 kts | 184° |
| 2026-05-08 07:29 | 40.28837 | -111.94093 | 19821 ft | 186 kts | 184° |
| 2026-05-08 07:30 | 40.27544 | -111.94059 | 20133 ft | 185 kts | 186° |
| 2026-05-08 07:30 | 40.26292 | -111.94216 | 20427 ft | 183 kts | 193° |
| 2026-05-08 07:30 | 40.25025 | -111.94414 | 20722 ft | 183 kts | 192° |
| 2026-05-08 07:30 | 40.23759 | -111.94593 | 21011 ft | 183 kts | 192° |
| 2026-05-08 07:31 | 40.22489 | -111.94779 | 21286 ft | 183 kts | 192° |
| 2026-05-08 07:31 | 40.21220 | -111.94962 | 21574 ft | 183 kts | 192° |
| 2026-05-08 07:31 | 40.19951 | -111.95145 | 21866 ft | 183 kts | 192° |
| 2026-05-08 07:31 | 40.18682 | -111.95330 | 22137 ft | 183 kts | 191° |
| 2026-05-08 07:32 | 40.17412 | -111.95515 | 22407 ft | 184 kts | 191° |
| 2026-05-08 07:32 | 40.16142 | -111.95703 | 22675 ft | 184 kts | 191° |
| 2026-05-08 07:32 | 40.14873 | -111.95887 | 22946 ft | 184 kts | 191° |
| 2026-05-08 07:32 | 40.13603 | -111.96073 | 23215 ft | 184 kts | 191° |
| 2026-05-08 07:33 | 40.12333 | -111.96257 | 23479 ft | 184 kts | 191° |
| 2026-05-08 07:33 | 40.11064 | -111.96444 | 23710 ft | 184 kts | 191° |
| 2026-05-08 07:33 | 40.09791 | -111.96629 | 23921 ft | 184 kts | 191° |
| 2026-05-08 07:33 | 40.08489 | -111.96822 | 23995 ft | 195 kts | 191° |
| 2026-05-08 07:34 | 40.07091 | -111.97028 | 24001 ft | 210 kts | 190° |
| 2026-05-08 07:34 | 40.05585 | -111.97246 | 23997 ft | 225 kts | 190° |
| 2026-05-08 07:34 | 40.03975 | -111.97479 | 23991 ft | 241 kts | 189° |
| 2026-05-08 07:34 | 40.02251 | -111.97728 | 23986 ft | 257 kts | 189° |
| 2026-05-08 07:35 | 40.00430 | -111.97990 | 23981 ft | 270 kts | 189° |
| 2026-05-08 07:35 | 39.98525 | -111.98263 | 23976 ft | 281 kts | 189° |
| 2026-05-08 07:35 | 39.96575 | -111.98545 | 23965 ft | 290 kts | 189° |
| 2026-05-08 07:35 | 39.94543 | -111.98837 | 23959 ft | 297 kts | 189° |
| 2026-05-08 07:36 | 39.92464 | -111.99137 | 23951 ft | 304 kts | 189° |
| 2026-05-08 07:36 | 39.90319 | -111.99446 | 23944 ft | 309 kts | 189° |
| 2026-05-08 07:36 | 39.88196 | -111.99751 | 23939 ft | 313 kts | 189° |
| 2026-05-08 07:36 | 39.86018 | -112.00065 | 23939 ft | 316 kts | 188° |
| 2026-05-08 07:37 | 39.83820 | -112.00381 | 23940 ft | 320 kts | 188° |
| 2026-05-08 07:37 | 39.81596 | -112.00700 | 23934 ft | 323 kts | 188° |
| 2026-05-08 07:37 | 39.79353 | -112.01022 | 23938 ft | 326 kts | 188° |
| 2026-05-08 07:37 | 39.77089 | -112.01349 | 23938 ft | 329 kts | 188° |
| 2026-05-08 07:38 | 39.74807 | -112.01676 | 23939 ft | 331 kts | 188° |
| 2026-05-08 07:38 | 39.72505 | -112.02006 | 23937 ft | 333 kts | 188° |
| 2026-05-08 07:38 | 39.70192 | -112.02337 | 23939 ft | 335 kts | 188° |
| 2026-05-08 07:38 | 39.67868 | -112.02672 | 23942 ft | 337 kts | 188° |
| 2026-05-08 07:39 | 39.65534 | -112.03007 | 23934 ft | 339 kts | 188° |
| 2026-05-08 07:39 | 39.63185 | -112.03343 | 23935 ft | 340 kts | 188° |
| 2026-05-08 07:39 | 39.60832 | -112.03679 | 23938 ft | 341 kts | 188° |
| 2026-05-08 07:39 | 39.58474 | -112.04017 | 23939 ft | 340 kts | 188° |
| 2026-05-08 07:40 | 39.56121 | -112.04353 | 23938 ft | 340 kts | 188° |
| 2026-05-08 07:40 | 39.53765 | -112.04690 | 23936 ft | 340 kts | 188° |
| 2026-05-08 07:40 | 39.51416 | -112.05025 | 23940 ft | 340 kts | 188° |
| 2026-05-08 07:40 | 39.49070 | -112.05360 | 23939 ft | 339 kts | 188° |
| 2026-05-08 07:41 | 39.46750 | -112.05691 | 23940 ft | 339 kts | 188° |
| 2026-05-08 07:41 | 39.44409 | -112.06024 | 23943 ft | 338 kts | 188° |
| 2026-05-08 07:41 | 39.42068 | -112.06357 | 23948 ft | 338 kts | 188° |
| 2026-05-08 07:41 | 39.39741 | -112.06689 | 23952 ft | 337 kts | 188° |
| 2026-05-08 07:42 | 39.37401 | -112.07020 | 23947 ft | 336 kts | 188° |
| 2026-05-08 07:42 | 39.35070 | -112.07350 | 23952 ft | 336 kts | 188° |
| 2026-05-08 07:42 | 39.32744 | -112.07681 | 23954 ft | 336 kts | 188° |
| 2026-05-08 07:42 | 39.30423 | -112.08010 | 23952 ft | 335 kts | 188° |
| 2026-05-08 07:43 | 39.28105 | -112.08338 | 23948 ft | 335 kts | 188° |
| 2026-05-08 07:43 | 39.25787 | -112.08665 | 23947 ft | 335 kts | 188° |
| 2026-05-08 07:43 | 39.23470 | -112.08993 | 23946 ft | 335 kts | 188° |
| 2026-05-08 07:43 | 39.21159 | -112.09320 | 23957 ft | 334 kts | 188° |
| 2026-05-08 07:44 | 39.18847 | -112.09646 | 23966 ft | 334 kts | 188° |
| 2026-05-08 07:44 | 39.16542 | -112.09974 | 23977 ft | 333 kts | 188° |
| 2026-05-08 07:44 | 39.14312 | -112.10679 | 23985 ft | 328 kts | 203° |
| 2026-05-08 07:44 | 39.12285 | -112.12002 | 23992 ft | 325 kts | 216° |
| 2026-05-08 07:45 | 39.10544 | -112.13827 | 24015 ft | 321 kts | 226° |
| 2026-05-08 07:45 | 39.08915 | -112.15794 | 24024 ft | 321 kts | 226° |
| 2026-05-08 07:45 | 39.07292 | -112.17716 | 24036 ft | 322 kts | 226° |
| 2026-05-08 07:45 | 39.05622 | -112.19691 | 24049 ft | 322 kts | 226° |
| 2026-05-08 07:46 | 39.04002 | -112.21624 | 24059 ft | 322 kts | 226° |
| 2026-05-08 07:46 | 39.02354 | -112.23586 | 24072 ft | 322 kts | 226° |
| 2026-05-08 07:46 | 39.00704 | -112.25543 | 24074 ft | 323 kts | 226° |
| 2026-05-08 07:46 | 38.99052 | -112.27501 | 24075 ft | 323 kts | 226° |
| 2026-05-08 07:47 | 38.97402 | -112.29460 | 24073 ft | 323 kts | 226° |
| 2026-05-08 07:47 | 38.95755 | -112.31413 | 24075 ft | 323 kts | 226° |
| 2026-05-08 07:47 | 38.94104 | -112.33368 | 24074 ft | 323 kts | 226° |
| 2026-05-08 07:47 | 38.92449 | -112.35326 | 24077 ft | 323 kts | 226° |
| 2026-05-08 07:48 | 38.90800 | -112.37278 | 24074 ft | 323 kts | 226° |
| 2026-05-08 07:48 | 38.89147 | -112.39231 | 24073 ft | 322 kts | 226° |
| 2026-05-08 07:48 | 38.87498 | -112.41179 | 24073 ft | 322 kts | 226° |
| 2026-05-08 07:48 | 38.85847 | -112.43128 | 24062 ft | 322 kts | 226° |
| 2026-05-08 07:49 | 38.84200 | -112.45071 | 24051 ft | 322 kts | 226° |
| 2026-05-08 07:49 | 38.82551 | -112.47013 | 24040 ft | 322 kts | 226° |
| 2026-05-08 07:49 | 38.80919 | -112.48935 | 24031 ft | 322 kts | 226° |
| 2026-05-08 07:49 | 38.79271 | -112.50876 | 24020 ft | 322 kts | 226° |
| 2026-05-08 07:50 | 38.77622 | -112.52815 | 24008 ft | 322 kts | 226° |
| 2026-05-08 07:50 | 38.75972 | -112.54755 | 23996 ft | 322 kts | 226° |
| 2026-05-08 07:50 | 38.74322 | -112.56692 | 23985 ft | 322 kts | 226° |
| 2026-05-08 07:50 | 38.72671 | -112.58631 | 23975 ft | 322 kts | 226° |
| 2026-05-08 07:51 | 38.71021 | -112.60566 | 23963 ft | 321 kts | 226° |
| 2026-05-08 07:51 | 38.69373 | -112.62498 | 23953 ft | 321 kts | 226° |
| 2026-05-08 07:51 | 38.67722 | -112.64433 | 23943 ft | 321 kts | 226° |
| 2026-05-08 07:51 | 38.66074 | -112.66363 | 23938 ft | 321 kts | 226° |
| 2026-05-08 07:52 | 38.64424 | -112.68293 | 23951 ft | 321 kts | 225° |
| 2026-05-08 07:52 | 38.62775 | -112.70221 | 23962 ft | 321 kts | 225° |
| 2026-05-08 07:52 | 38.61129 | -112.72145 | 23972 ft | 321 kts | 225° |
| 2026-05-08 07:52 | 38.60037 | -112.73422 | 23980 ft | 321 kts | 225° |
| 2026-05-08 07:53 | 38.58390 | -112.75344 | 23990 ft | 321 kts | 225° |
| 2026-05-08 07:53 | 38.56742 | -112.77267 | 24002 ft | 321 kts | 225° |
| 2026-05-08 07:53 | 38.55092 | -112.79191 | 24013 ft | 321 kts | 225° |
| 2026-05-08 07:53 | 38.53447 | -112.81108 | 24027 ft | 320 kts | 225° |
| 2026-05-08 07:54 | 38.51801 | -112.83027 | 24037 ft | 321 kts | 225° |
| 2026-05-08 07:54 | 38.50153 | -112.84946 | 24043 ft | 320 kts | 225° |
| 2026-05-08 07:54 | 38.48505 | -112.86859 | 24053 ft | 320 kts | 225° |
| 2026-05-08 07:54 | 38.46855 | -112.88779 | 24064 ft | 320 kts | 226° |
| 2026-05-08 07:55 | 38.45210 | -112.90693 | 24074 ft | 320 kts | 225° |
| 2026-05-08 07:55 | 38.43561 | -112.92607 | 24077 ft | 320 kts | 225° |
| 2026-05-08 07:55 | 38.41914 | -112.94516 | 24075 ft | 320 kts | 225° |
| 2026-05-08 07:55 | 38.40266 | -112.96428 | 24074 ft | 320 kts | 225° |
| 2026-05-08 07:56 | 38.38618 | -112.98337 | 24075 ft | 320 kts | 225° |
| 2026-05-08 07:56 | 38.36963 | -113.00227 | 24073 ft | 320 kts | 223° |
| 2026-05-08 07:56 | 38.35073 | -113.01740 | 24075 ft | 323 kts | 208° |
| 2026-05-08 07:56 | 38.33002 | -113.02773 | 24081 ft | 324 kts | 202° |
| 2026-05-08 07:57 | 38.30886 | -113.03766 | 24069 ft | 324 kts | 203° |
| 2026-05-08 07:57 | 38.28774 | -113.04778 | 24055 ft | 324 kts | 203° |
| 2026-05-08 07:57 | 38.26662 | -113.05785 | 24042 ft | 324 kts | 203° |
| 2026-05-08 07:57 | 38.24544 | -113.06787 | 24028 ft | 325 kts | 203° |
| 2026-05-08 07:58 | 38.22426 | -113.07790 | 24016 ft | 325 kts | 203° |
| 2026-05-08 07:58 | 38.20309 | -113.08794 | 24000 ft | 325 kts | 203° |
| 2026-05-08 07:58 | 38.18191 | -113.09798 | 23988 ft | 325 kts | 203° |
| 2026-05-08 07:58 | 38.16071 | -113.10802 | 23975 ft | 325 kts | 203° |
| 2026-05-08 07:59 | 38.13947 | -113.11806 | 23960 ft | 326 kts | 203° |
| 2026-05-08 07:59 | 38.11823 | -113.12811 | 23946 ft | 326 kts | 203° |
| 2026-05-08 07:59 | 38.09699 | -113.13815 | 23937 ft | 326 kts | 203° |
| 2026-05-08 07:59 | 38.07572 | -113.14819 | 23929 ft | 326 kts | 203° |
| 2026-05-08 08:00 | 38.05449 | -113.15823 | 23933 ft | 326 kts | 203° |
| 2026-05-08 08:00 | 38.03322 | -113.16826 | 23946 ft | 326 kts | 203° |
| 2026-05-08 08:00 | 38.01197 | -113.17828 | 23953 ft | 326 kts | 203° |
| 2026-05-08 08:00 | 37.99069 | -113.18832 | 23970 ft | 326 kts | 203° |
| 2026-05-08 08:01 | 37.96942 | -113.19834 | 23986 ft | 326 kts | 202° |
| 2026-05-08 08:01 | 37.94812 | -113.20837 | 23998 ft | 326 kts | 202° |
| 2026-05-08 08:01 | 37.92687 | -113.21836 | 24013 ft | 326 kts | 202° |
| 2026-05-08 08:01 | 37.90557 | -113.22838 | 24026 ft | 326 kts | 202° |
| 2026-05-08 08:02 | 37.88429 | -113.23838 | 24036 ft | 326 kts | 202° |
| 2026-05-08 08:02 | 37.86299 | -113.24840 | 24045 ft | 326 kts | 203° |
| 2026-05-08 08:02 | 37.84173 | -113.25844 | 24059 ft | 326 kts | 202° |
| 2026-05-08 08:02 | 37.82044 | -113.26837 | 24061 ft | 326 kts | 202° |
| 2026-05-08 08:03 | 37.79915 | -113.27832 | 24069 ft | 326 kts | 202° |
| 2026-05-08 08:03 | 37.77791 | -113.28828 | 24071 ft | 326 kts | 202° |
| 2026-05-08 08:03 | 37.75665 | -113.29824 | 24079 ft | 326 kts | 202° |
| 2026-05-08 08:03 | 37.73535 | -113.30818 | 24077 ft | 326 kts | 202° |
| 2026-05-08 08:04 | 37.71408 | -113.31812 | 24074 ft | 326 kts | 202° |
| 2026-05-08 08:04 | 37.69281 | -113.32806 | 24063 ft | 326 kts | 202° |
| 2026-05-08 08:04 | 37.67154 | -113.33799 | 24055 ft | 326 kts | 202° |
| 2026-05-08 08:04 | 37.65029 | -113.34789 | 24042 ft | 326 kts | 202° |
| 2026-05-08 08:05 | 37.62904 | -113.35779 | 24036 ft | 326 kts | 202° |
| 2026-05-08 08:05 | 37.60780 | -113.36771 | 24018 ft | 325 kts | 202° |
| 2026-05-08 08:05 | 37.58655 | -113.37760 | 24006 ft | 325 kts | 202° |
| 2026-05-08 08:05 | 37.56529 | -113.38750 | 23989 ft | 325 kts | 202° |
| 2026-05-08 08:06 | 37.54436 | -113.39723 | 23973 ft | 325 kts | 202° |
| 2026-05-08 08:06 | 37.52313 | -113.40709 | 23957 ft | 325 kts | 202° |
| 2026-05-08 08:06 | 37.50187 | -113.41697 | 23940 ft | 326 kts | 202° |
| 2026-05-08 08:06 | 37.48062 | -113.42682 | 23923 ft | 325 kts | 202° |
| 2026-05-08 08:07 | 37.45937 | -113.43670 | 23906 ft | 325 kts | 202° |
| 2026-05-08 08:07 | 37.43813 | -113.44655 | 23901 ft | 325 kts | 202° |
| 2026-05-08 08:07 | 37.41689 | -113.45639 | 23897 ft | 325 kts | 202° |
| 2026-05-08 08:07 | 37.39562 | -113.46624 | 23896 ft | 326 kts | 202° |
| 2026-05-08 08:08 | 37.37437 | -113.47609 | 23904 ft | 325 kts | 202° |
| 2026-05-08 08:08 | 37.35312 | -113.48591 | 23910 ft | 326 kts | 201° |
| 2026-05-08 08:08 | 37.33182 | -113.49577 | 23913 ft | 326 kts | 202° |
| 2026-05-08 08:08 | 37.31055 | -113.50559 | 23930 ft | 324 kts | 202° |
| 2026-05-08 08:09 | 37.28940 | -113.51537 | 23932 ft | 323 kts | 202° |
| 2026-05-08 08:09 | 37.26831 | -113.52511 | 23938 ft | 323 kts | 201° |
| 2026-05-08 08:09 | 37.24719 | -113.53488 | 23945 ft | 323 kts | 202° |
| 2026-05-08 08:09 | 37.22676 | -113.54642 | 23948 ft | 321 kts | 207° |
| 2026-05-08 08:10 | 37.20659 | -113.55849 | 23955 ft | 322 kts | 207° |
| 2026-05-08 08:10 | 37.18659 | -113.57029 | 23957 ft | 322 kts | 206° |
| 2026-05-08 08:10 | 37.16626 | -113.58209 | 23966 ft | 322 kts | 206° |
| 2026-05-08 08:10 | 37.14594 | -113.59393 | 23968 ft | 322 kts | 207° |
| 2026-05-08 08:11 | 37.12824 | -113.60432 | 23970 ft | 322 kts | 207° |
| 2026-05-08 08:11 | 37.11057 | -113.61467 | 23973 ft | 322 kts | 207° |
| 2026-05-08 08:11 | 37.09024 | -113.62652 | 23976 ft | 322 kts | 206° |
| 2026-05-08 08:11 | 37.06990 | -113.63839 | 23974 ft | 323 kts | 207° |
| 2026-05-08 08:12 | 37.04951 | -113.65030 | 23971 ft | 323 kts | 206° |
| 2026-05-08 08:12 | 37.02910 | -113.66219 | 23969 ft | 323 kts | 206° |
| 2026-05-08 08:12 | 37.00871 | -113.67409 | 23964 ft | 324 kts | 207° |
| 2026-05-08 08:12 | 36.98827 | -113.68599 | 23958 ft | 324 kts | 206° |
| 2026-05-08 08:13 | 36.96783 | -113.69788 | 23951 ft | 324 kts | 206° |
| 2026-05-08 08:13 | 36.94738 | -113.70978 | 23944 ft | 325 kts | 206° |
| 2026-05-08 08:13 | 36.92691 | -113.72170 | 23934 ft | 325 kts | 207° |
| 2026-05-08 08:13 | 36.90643 | -113.73368 | 23926 ft | 325 kts | 207° |
| 2026-05-08 08:14 | 36.88594 | -113.74565 | 23917 ft | 325 kts | 207° |
| 2026-05-08 08:14 | 36.86545 | -113.75759 | 23906 ft | 325 kts | 207° |
| 2026-05-08 08:14 | 36.84492 | -113.76957 | 23894 ft | 326 kts | 207° |
| 2026-05-08 08:14 | 36.82437 | -113.78154 | 23884 ft | 326 kts | 207° |
| 2026-05-08 08:15 | 36.80380 | -113.79353 | 23872 ft | 326 kts | 207° |
| 2026-05-08 08:15 | 36.78346 | -113.80536 | 23858 ft | 327 kts | 207° |
| 2026-05-08 08:15 | 36.76284 | -113.81736 | 23851 ft | 327 kts | 207° |
| 2026-05-08 08:15 | 36.74225 | -113.82933 | 23850 ft | 327 kts | 207° |
| 2026-05-08 08:16 | 36.72159 | -113.84133 | 23851 ft | 327 kts | 207° |
| 2026-05-08 08:16 | 36.70097 | -113.85331 | 23847 ft | 327 kts | 207° |
| 2026-05-08 08:16 | 36.68031 | -113.86530 | 23847 ft | 327 kts | 207° |
| 2026-05-08 08:16 | 36.65969 | -113.87725 | 23846 ft | 327 kts | 207° |
| 2026-05-08 08:17 | 36.63903 | -113.88923 | 23845 ft | 326 kts | 207° |
| 2026-05-08 08:17 | 36.61842 | -113.90118 | 23841 ft | 327 kts | 207° |
| 2026-05-08 08:17 | 36.59824 | -113.91402 | 23837 ft | 324 kts | 215° |
| 2026-05-08 08:17 | 36.58103 | -113.93185 | 23834 ft | 321 kts | 229° |
| 2026-05-08 08:18 | 36.56728 | -113.95302 | 23834 ft | 318 kts | 236° |
| 2026-05-08 08:18 | 36.55385 | -113.97490 | 23835 ft | 318 kts | 235° |
| 2026-05-08 08:18 | 36.54021 | -113.99669 | 23832 ft | 319 kts | 235° |
| 2026-05-08 08:18 | 36.52660 | -114.01853 | 23827 ft | 319 kts | 235° |
| 2026-05-08 08:19 | 36.51307 | -114.04040 | 23826 ft | 319 kts | 235° |
| 2026-05-08 08:19 | 36.49951 | -114.06228 | 23824 ft | 319 kts | 235° |
| 2026-05-08 08:19 | 36.48591 | -114.08413 | 23818 ft | 320 kts | 235° |
| 2026-05-08 08:19 | 36.47231 | -114.10598 | 23814 ft | 320 kts | 235° |
| 2026-05-08 08:20 | 36.45871 | -114.12786 | 23810 ft | 320 kts | 235° |
| 2026-05-08 08:20 | 36.44508 | -114.14974 | 23812 ft | 320 kts | 235° |
| 2026-05-08 08:20 | 36.43144 | -114.17162 | 23811 ft | 320 kts | 235° |
| 2026-05-08 08:20 | 36.41798 | -114.19322 | 23806 ft | 321 kts | 235° |
| 2026-05-08 08:21 | 36.40430 | -114.21515 | 23800 ft | 321 kts | 235° |
| 2026-05-08 08:21 | 36.39060 | -114.23708 | 23795 ft | 321 kts | 235° |
| 2026-05-08 08:21 | 36.37675 | -114.25888 | 23792 ft | 322 kts | 234° |
| 2026-05-08 08:21 | 36.36279 | -114.28061 | 23790 ft | 322 kts | 234° |
| 2026-05-08 08:22 | 36.34888 | -114.30242 | 23790 ft | 322 kts | 234° |
| 2026-05-08 08:22 | 36.33498 | -114.32429 | 23795 ft | 322 kts | 234° |
| 2026-05-08 08:22 | 36.32108 | -114.34611 | 23786 ft | 322 kts | 234° |
| 2026-05-08 08:22 | 36.30710 | -114.36796 | 23784 ft | 323 kts | 234° |
| 2026-05-08 08:23 | 36.29317 | -114.38976 | 23784 ft | 322 kts | 234° |
| 2026-05-08 08:23 | 36.27926 | -114.41153 | 23788 ft | 322 kts | 234° |
| 2026-05-08 08:23 | 36.26534 | -114.43329 | 23781 ft | 322 kts | 234° |
| 2026-05-08 08:23 | 36.25142 | -114.45503 | 23785 ft | 321 kts | 234° |
| 2026-05-08 08:24 | 36.23757 | -114.47635 | 23782 ft | 322 kts | 234° |
| 2026-05-08 08:24 | 36.22345 | -114.49785 | 23782 ft | 322 kts | 234° |
| 2026-05-08 08:24 | 36.20938 | -114.51939 | 23777 ft | 322 kts | 234° |
| 2026-05-08 08:24 | 36.19533 | -114.54100 | 23774 ft | 322 kts | 234° |
| 2026-05-08 08:25 | 36.18124 | -114.56259 | 23793 ft | 323 kts | 234° |
| 2026-05-08 08:25 | 36.16709 | -114.58422 | 23807 ft | 323 kts | 234° |
| 2026-05-08 08:25 | 36.15295 | -114.60582 | 23819 ft | 323 kts | 234° |
| 2026-05-08 08:25 | 36.13883 | -114.62740 | 23829 ft | 323 kts | 234° |
| 2026-05-08 08:26 | 36.12468 | -114.64902 | 23839 ft | 323 kts | 234° |
| 2026-05-08 08:26 | 36.11048 | -114.67065 | 23854 ft | 323 kts | 234° |
| 2026-05-08 08:26 | 36.09633 | -114.69222 | 23864 ft | 323 kts | 234° |
| 2026-05-08 08:26 | 36.08404 | -114.71520 | 23873 ft | 318 kts | 246° |
| 2026-05-08 08:27 | 36.07637 | -114.74061 | 23885 ft | 314 kts | 259° |
| 2026-05-08 08:27 | 36.07334 | -114.76705 | 23894 ft | 309 kts | 271° |
| 2026-05-08 08:27 | 36.07347 | -114.79357 | 23902 ft | 308 kts | 274° |
| 2026-05-08 08:27 | 36.07350 | -114.82006 | 23906 ft | 308 kts | 274° |
| 2026-05-08 08:28 | 36.07346 | -114.84656 | 23910 ft | 308 kts | 274° |
| 2026-05-08 08:28 | 36.07351 | -114.87271 | 23909 ft | 308 kts | 274° |
| 2026-05-08 08:28 | 36.07357 | -114.89922 | 23907 ft | 309 kts | 274° |
| 2026-05-08 08:28 | 36.07361 | -114.92576 | 23906 ft | 309 kts | 274° |
| 2026-05-08 08:29 | 36.07363 | -114.95235 | 23904 ft | 309 kts | 274° |
| 2026-05-08 08:29 | 36.07366 | -114.97895 | 23914 ft | 309 kts | 274° |
| 2026-05-08 08:29 | 36.07368 | -115.00551 | 23924 ft | 309 kts | 274° |
| 2026-05-08 08:29 | 36.07369 | -115.03213 | 23933 ft | 309 kts | 274° |
| 2026-05-08 08:30 | 36.07369 | -115.05871 | 23937 ft | 309 kts | 274° |
| 2026-05-08 08:30 | 36.07369 | -115.08531 | 23937 ft | 309 kts | 274° |
| 2026-05-08 08:30 | 36.07367 | -115.13841 | 23936 ft | 309 kts | 274° |
| 2026-05-08 08:31 | 36.07365 | -115.16494 | 23937 ft | 309 kts | 274° |
| 2026-05-08 08:31 | 36.07363 | -115.19155 | 23936 ft | 309 kts | 274° |
| 2026-05-08 08:31 | 36.07360 | -115.21807 | 23937 ft | 309 kts | 274° |
| 2026-05-08 08:31 | 36.07357 | -115.24457 | 23935 ft | 308 kts | 274° |
| 2026-05-08 08:32 | 36.07353 | -115.27109 | 23934 ft | 308 kts | 274° |
| 2026-05-08 08:32 | 36.07347 | -115.29730 | 23938 ft | 308 kts | 274° |
| 2026-05-08 08:32 | 36.07341 | -115.32375 | 23938 ft | 308 kts | 274° |
| 2026-05-08 08:32 | 36.07335 | -115.35028 | 23937 ft | 308 kts | 274° |
| 2026-05-08 08:33 | 36.07328 | -115.37678 | 23936 ft | 308 kts | 274° |
| 2026-05-08 08:33 | 36.07321 | -115.40324 | 23938 ft | 308 kts | 274° |
| 2026-05-08 08:33 | 36.07313 | -115.42968 | 23938 ft | 308 kts | 274° |
| 2026-05-08 08:33 | 36.07304 | -115.45613 | 23943 ft | 308 kts | 274° |
| 2026-05-08 08:34 | 36.07295 | -115.48255 | 23941 ft | 308 kts | 274° |
| 2026-05-08 08:34 | 36.07286 | -115.50907 | 23943 ft | 308 kts | 274° |
| 2026-05-08 08:34 | 36.07275 | -115.53552 | 23941 ft | 308 kts | 274° |
| 2026-05-08 08:34 | 36.07264 | -115.56200 | 23942 ft | 308 kts | 274° |
| 2026-05-08 08:35 | 36.07253 | -115.58842 | 23946 ft | 308 kts | 274° |
| 2026-05-08 08:35 | 36.07241 | -115.61494 | 23945 ft | 308 kts | 273° |
| 2026-05-08 08:35 | 36.07228 | -115.64142 | 23941 ft | 307 kts | 273° |
| 2026-05-08 08:35 | 36.07215 | -115.66783 | 23944 ft | 307 kts | 273° |
| 2026-05-08 08:36 | 36.07202 | -115.69425 | 23940 ft | 308 kts | 273° |
| 2026-05-08 08:36 | 36.07188 | -115.72070 | 23937 ft | 307 kts | 273° |
| 2026-05-08 08:36 | 36.07174 | -115.74708 | 23934 ft | 307 kts | 273° |
| 2026-05-08 08:36 | 36.07159 | -115.77314 | 23932 ft | 307 kts | 273° |
| 2026-05-08 08:37 | 36.07143 | -115.79954 | 23930 ft | 307 kts | 273° |
| 2026-05-08 08:37 | 36.07135 | -115.82593 | 23926 ft | 305 kts | 275° |
| 2026-05-08 08:37 | 36.07637 | -115.85094 | 23906 ft | 298 kts | 299° |
| 2026-05-08 08:37 | 36.08926 | -115.87036 | 23889 ft | 294 kts | 322° |
| 2026-05-08 08:38 | 36.10095 | -115.87888 | 23642 ft | 297 kts | 338° |
| 2026-05-08 08:38 | 36.12139 | -115.88308 | 23255 ft | 302 kts | 1° |
| 2026-05-08 08:38 | 36.14168 | -115.87611 | 22844 ft | 308 kts | 25° |
| 2026-05-08 08:38 | 36.15918 | -115.86052 | 22451 ft | 312 kts | 38° |
| 2026-05-08 08:39 | 36.17534 | -115.84243 | 22075 ft | 314 kts | 40° |
| 2026-05-08 08:39 | 36.19129 | -115.82380 | 21691 ft | 315 kts | 41° |
| 2026-05-08 08:39 | 36.20718 | -115.80508 | 21319 ft | 316 kts | 41° |
| 2026-05-08 08:39 | 36.22316 | -115.78628 | 20950 ft | 317 kts | 41° |
| 2026-05-08 08:40 | 36.23915 | -115.76755 | 20587 ft | 317 kts | 41° |
| 2026-05-08 08:40 | 36.25517 | -115.74887 | 20231 ft | 316 kts | 41° |
| 2026-05-08 08:40 | 36.27116 | -115.73030 | 19876 ft | 314 kts | 41° |
| 2026-05-08 08:40 | 36.28709 | -115.71186 | 19525 ft | 312 kts | 41° |
| 2026-05-08 08:41 | 36.30293 | -115.69353 | 19181 ft | 311 kts | 41° |
| 2026-05-08 08:41 | 36.31872 | -115.67530 | 18841 ft | 310 kts | 41° |
| 2026-05-08 08:41 | 36.33447 | -115.65722 | 18501 ft | 307 kts | 41° |
| 2026-05-08 08:41 | 36.34917 | -115.63815 | 18131 ft | 308 kts | 53° |
| 2026-05-08 08:42 | 36.35734 | -115.61370 | 17715 ft | 310 kts | 77° |
| 2026-05-08 08:42 | 36.35725 | -115.58701 | 17312 ft | 311 kts | 96° |
| 2026-05-08 08:42 | 36.35323 | -115.56063 | 16936 ft | 310 kts | 100° |
| 2026-05-08 08:42 | 36.34857 | -115.53489 | 16551 ft | 309 kts | 101° |
| 2026-05-08 08:43 | 36.34372 | -115.50897 | 16171 ft | 307 kts | 101° |
| 2026-05-08 08:43 | 36.33890 | -115.48324 | 15775 ft | 306 kts | 101° |
| 2026-05-08 08:43 | 36.33405 | -115.45760 | 15411 ft | 305 kts | 101° |
| 2026-05-08 08:43 | 36.32926 | -115.43210 | 15051 ft | 303 kts | 101° |
| 2026-05-08 08:44 | 36.32449 | -115.40669 | 14697 ft | 302 kts | 101° |
| 2026-05-08 08:44 | 36.31974 | -115.38143 | 14347 ft | 301 kts | 101° |
| 2026-05-08 08:44 | 36.31494 | -115.35574 | 13999 ft | 311 kts | 101° |
| 2026-05-08 08:44 | 36.31001 | -115.32921 | 13654 ft | 318 kts | 101° |
| 2026-05-08 08:45 | 36.30504 | -115.30234 | 13274 ft | 322 kts | 101° |
| 2026-05-08 08:45 | 36.30002 | -115.27522 | 12900 ft | 323 kts | 101° |
| 2026-05-08 08:45 | 36.29499 | -115.24810 | 12526 ft | 322 kts | 101° |
| 2026-05-08 08:45 | 36.28997 | -115.22114 | 12154 ft | 321 kts | 101° |
| 2026-05-08 08:46 | 36.28492 | -115.19425 | 11788 ft | 319 kts | 101° |
| 2026-05-08 08:46 | 36.27994 | -115.16786 | 11421 ft | 309 kts | 101° |
| 2026-05-08 08:46 | 36.27506 | -115.14225 | 11059 ft | 302 kts | 101° |
| 2026-05-08 08:46 | 36.27024 | -115.11722 | 10655 ft | 297 kts | 101° |
| 2026-05-08 08:47 | 36.26552 | -115.09275 | 10301 ft | 293 kts | 101° |
| 2026-05-08 08:47 | 36.26078 | -115.06820 | 9956 ft | 293 kts | 101° |
| 2026-05-08 08:47 | 36.25596 | -115.04337 | 9597 ft | 296 kts | 101° |
| 2026-05-08 08:47 | 36.25117 | -115.01874 | 9221 ft | 293 kts | 101° |
| 2026-05-08 08:48 | 36.24646 | -114.99428 | 8843 ft | 290 kts | 101° |
| 2026-05-08 08:48 | 36.23986 | -114.97065 | 8397 ft | 293 kts | 112° |
| 2026-05-08 08:48 | 36.22981 | -114.94875 | 8056 ft | 291 kts | 124° |
| 2026-05-08 08:48 | 36.21676 | -114.92971 | 7716 ft | 291 kts | 135° |
| 2026-05-08 08:49 | 36.20092 | -114.91422 | 7322 ft | 291 kts | 149° |
| 2026-05-08 08:49 | 36.18278 | -114.90403 | 7085 ft | 282 kts | 163° |
| 2026-05-08 08:49 | 36.16386 | -114.89833 | 6742 ft | 277 kts | 169° |
| 2026-05-08 08:49 | 36.14540 | -114.89307 | 6599 ft | 269 kts | 168° |
| 2026-05-08 08:50 | 36.12743 | -114.88783 | 6452 ft | 264 kts | 169° |
| 2026-05-08 08:50 | 36.10955 | -114.88460 | 6377 ft | 259 kts | 179° |
| 2026-05-08 08:50 | 36.09176 | -114.88621 | 6273 ft | 255 kts | 194° |
| 2026-05-08 08:50 | 36.07533 | -114.89432 | 6065 ft | 255 kts | 216° |
| 2026-05-08 08:51 | 36.06482 | -114.91137 | 5814 ft | 253 kts | 251° |
| 2026-05-08 08:51 | 36.06297 | -114.93282 | 5488 ft | 252 kts | 272° |
| 2026-05-08 08:51 | 36.06476 | -114.95431 | 5185 ft | 253 kts | 277° |
| 2026-05-08 08:51 | 36.06710 | -114.97598 | 4821 ft | 255 kts | 278° |
| 2026-05-08 08:52 | 36.06972 | -114.99739 | 4369 ft | 246 kts | 278° |
| 2026-05-08 08:52 | 36.07100 | -115.01781 | 3971 ft | 234 kts | 273° |
| 2026-05-08 08:52 | 36.07216 | -115.03747 | 3544 ft | 229 kts | 273° |
| 2026-05-08 08:52 | 36.07268 | -115.05683 | 3213 ft | 221 kts | 270° |
| 2026-05-08 08:53 | 36.07286 | -115.07561 | 2726 ft | 213 kts | 269° |
| 2026-05-08 08:53 | 36.07333 | -115.09272 | 2518 ft | 178 kts | 271° |
| 2026-05-08 08:53 | 36.07375 | -115.10629 | 2325 ft | 134 kts | 270° |
| 2026-05-08 08:53 | 36.07371 | -115.11605 | 2183 ft | 105 kts | 264° |
| 2026-05-08 08:54 | 36.07363 | -115.12480 | 2094 ft | 101 kts | 267° |
| 2026-05-08 08:54 | 36.07356 | -115.13316 | 2088 ft | 92 kts | 267° |
| 2026-05-08 08:54 | 36.07359 | -115.14088 | 2105 ft | 88 kts | 268° |
| 2026-05-08 08:54 | 36.07361 | -115.14767 | 2120 ft | 66 kts | 269° |
| 2026-05-08 08:55 | 36.07379 | -115.15243 | 2129 ft | 47 kts | 284° |
| 2026-05-08 08:55 | 36.07486 | -115.15552 | 2147 ft | 32 kts | 291° |
| 2026-05-08 08:55 | 36.07501 | -115.15778 | 2156 ft | 21 kts | 271° |
| 2026-05-08 08:55 | 36.07500 | -115.15967 | 2161 ft | 29 kts | 269° |